createdAt,value
2018-03-03T00:00:24.299Z,74.10
2018-03-03T00:01:24.277Z,74.50
2018-03-03T00:02:24.270Z,70.50
2018-03-03T00:03:24.238Z,72.40
2018-03-03T00:04:24.237Z,73.10
2018-03-03T00:05:24.190Z,75.10
2018-03-03T00:06:24.176Z,74.60
2018-03-03T00:07:24.157Z,76.10
2018-03-03T00:08:24.134Z,74.60
2018-03-03T00:09:24.103Z,75.00
2018-03-03T00:10:24.104Z,75.50
2018-03-03T00:11:24.072Z,75.90
2018-03-03T00:12:24.036Z,75.90
2018-03-03T00:13:24.010Z,73.80
2018-03-03T00:14:23.994Z,77.50
2018-03-03T00:15:23.970Z,76.20
2018-03-03T00:16:23.960Z,74.90
2018-03-03T00:17:23.927Z,73.80
2018-03-03T00:18:23.903Z,76.10
2018-03-03T00:19:23.889Z,77.50
2018-03-03T00:20:23.868Z,76.50
2018-03-03T00:21:23.867Z,76.60
2018-03-03T00:22:23.812Z,77.20
2018-03-03T00:23:23.793Z,77.70
2018-03-03T00:24:23.765Z,77.30
2018-03-03T00:25:23.750Z,78.90
2018-03-03T00:26:23.726Z,77.10
2018-03-03T00:27:23.731Z,78.50
2018-03-03T00:28:23.681Z,80.30
2018-03-03T00:29:23.667Z,78.60
2018-03-03T00:30:23.639Z,75.70
2018-03-03T00:31:23.611Z,79.70
2018-03-03T00:32:23.613Z,77.50
2018-03-03T00:33:23.572Z,79.80
2018-03-03T00:34:23.548Z,76.30
2018-03-03T00:35:23.529Z,77.50
2018-03-03T00:36:23.505Z,80.40
2018-03-03T00:37:23.510Z,77.80
2018-03-03T00:38:23.474Z,77.40
2018-03-03T00:39:23.459Z,78.20
2018-03-03T00:40:23.416Z,79.20
2018-03-03T00:41:23.401Z,79.30
2018-03-03T00:42:23.405Z,79.90
2018-03-03T00:43:23.346Z,77.20
2018-03-03T00:44:23.331Z,76.10
2018-03-03T00:45:23.321Z,78.50
2018-03-03T00:46:23.285Z,78.00
2018-03-03T00:47:23.261Z,77.30
2018-03-03T00:48:23.241Z,78.20
2018-03-03T00:49:23.228Z,78.00
2018-03-03T00:50:23.190Z,79.00
2018-03-03T00:51:23.195Z,77.90
2018-03-03T00:52:23.146Z,77.30
2018-03-03T00:53:23.127Z,78.90
2018-03-03T00:54:23.107Z,77.70
2018-03-03T00:55:23.108Z,77.10
2018-03-03T00:56:23.063Z,79.90
2018-03-03T00:57:23.038Z,78.50
2018-03-03T00:58:23.018Z,79.20
2018-03-03T00:59:23.011Z,77.00
2018-03-03T01:00:22.977Z,77.10
2018-03-03T01:01:22.973Z,78.90
2018-03-03T01:02:22.947Z,76.70
2018-03-03T01:03:22.908Z,77.70
2018-03-03T01:04:22.898Z,74.60
2018-03-03T01:05:22.896Z,77.70
2018-03-03T01:06:22.851Z,76.70
2018-03-03T01:07:22.818Z,75.40
2018-03-03T01:08:22.797Z,76.00
2018-03-03T01:09:22.786Z,77.30
2018-03-03T01:10:22.761Z,76.80
2018-03-03T01:11:22.747Z,77.30
2018-03-03T01:12:22.706Z,74.50
2018-03-03T01:13:22.681Z,76.50
2018-03-03T01:14:22.663Z,75.50
2018-03-03T01:15:22.638Z,76.30
2018-03-03T01:16:22.621Z,77.00
2018-03-03T01:17:22.608Z,77.80
2018-03-03T01:18:22.590Z,76.50
2018-03-03T01:19:22.555Z,77.60
2018-03-03T01:20:22.531Z,77.50
2018-03-03T01:21:22.521Z,77.40
2018-03-03T01:22:22.506Z,76.40
2018-03-03T01:23:22.505Z,75.50
2018-03-03T01:24:22.443Z,76.10
2018-03-03T01:25:22.430Z,74.10
2018-03-03T01:26:22.398Z,73.90
2018-03-03T01:27:22.370Z,75.00
2018-03-03T01:28:22.364Z,75.00
2018-03-03T01:29:22.330Z,73.40
2018-03-03T01:30:22.322Z,75.30
2018-03-03T01:31:22.289Z,75.40
2018-03-03T01:32:22.263Z,76.70
2018-03-03T01:33:22.258Z,75.00
2018-03-03T01:34:22.212Z,77.00
2018-03-03T01:35:22.198Z,78.90
2018-03-03T01:36:22.171Z,78.40
2018-03-03T01:37:22.164Z,77.30
2018-03-03T01:38:22.158Z,75.60
2018-03-03T01:39:22.115Z,77.30
2018-03-03T01:40:22.091Z,76.90
2018-03-03T01:41:22.063Z,76.40
2018-03-03T01:42:22.042Z,75.30
2018-03-03T01:43:22.017Z,74.80
2018-03-03T01:44:22.007Z,76.00
2018-03-03T01:45:21.977Z,75.80
2018-03-03T01:46:21.950Z,75.50
2018-03-03T01:47:21.926Z,78.80
2018-03-03T01:48:21.907Z,77.50
2018-03-03T01:49:21.901Z,79.40
2018-03-03T01:50:21.866Z,76.60
2018-03-03T01:51:21.842Z,76.70
2018-03-03T01:52:21.817Z,76.00
2018-03-03T01:53:21.794Z,75.70
2018-03-03T01:54:21.776Z,75.80
2018-03-03T01:55:21.770Z,75.90
2018-03-03T01:56:21.744Z,74.30
2018-03-03T01:57:21.715Z,74.30
2018-03-03T01:58:21.689Z,75.40
2018-03-03T01:59:21.686Z,78.60
2018-03-03T02:00:21.660Z,74.60
2018-03-03T02:01:21.632Z,76.00
2018-03-03T02:02:21.596Z,76.50
2018-03-03T02:03:21.597Z,75.10
2018-03-03T02:04:21.546Z,76.90
2018-03-03T02:05:21.530Z,78.30
2018-03-03T02:06:21.544Z,77.10
2018-03-03T02:07:21.487Z,75.80
2018-03-03T02:08:21.462Z,75.00
2018-03-03T02:09:21.457Z,78.20
2018-03-03T02:10:21.424Z,76.60
2018-03-03T02:11:21.398Z,76.30
2018-03-03T02:12:21.408Z,76.70
2018-03-03T02:13:21.355Z,76.40
2018-03-03T02:14:21.337Z,76.60
2018-03-03T02:15:21.307Z,77.10
2018-03-03T02:16:21.294Z,79.20
2018-03-03T02:17:21.268Z,79.00
2018-03-03T02:18:21.256Z,80.50
2018-03-03T02:19:21.220Z,80.60
2018-03-03T02:20:21.210Z,82.10
2018-03-03T02:21:21.180Z,82.20
2018-03-03T02:22:21.179Z,83.60
2018-03-03T02:23:21.136Z,87.40
2018-03-03T02:24:21.114Z,86.30
2018-03-03T02:25:21.090Z,86.90
2018-03-03T02:26:21.080Z,84.90
2018-03-03T02:27:21.050Z,83.70
2018-03-03T02:28:21.044Z,84.30
2018-03-03T02:29:21.011Z,87.70
2018-03-03T02:30:20.984Z,87.50
2018-03-03T02:31:20.957Z,85.40
2018-03-03T02:32:20.930Z,85.90
2018-03-03T02:33:20.923Z,85.30
2018-03-03T02:34:20.895Z,86.80
2018-03-03T02:35:41.887Z,85.60
2018-03-03T02:36:20.858Z,83.90
2018-03-03T02:37:20.824Z,86.60
2018-03-03T02:38:20.800Z,83.40
2018-03-03T02:39:20.811Z,83.60
2018-03-03T02:40:20.764Z,84.50
2018-03-03T02:41:20.791Z,88.10
2018-03-03T02:42:20.714Z,88.90
2018-03-03T02:43:20.703Z,84.80
2018-03-03T02:44:20.700Z,84.80
2018-03-03T02:45:20.658Z,83.40
2018-03-03T02:46:20.631Z,85.00
2018-03-03T02:47:20.636Z,85.80
2018-03-03T02:48:20.580Z,86.60
2018-03-03T02:49:20.562Z,82.90
2018-03-03T02:50:20.543Z,84.30
2018-03-03T02:51:20.519Z,86.10
2018-03-03T02:52:20.505Z,87.70
2018-03-03T02:53:20.499Z,89.60
2018-03-03T02:54:20.479Z,89.50
2018-03-03T02:55:20.457Z,90.50
2018-03-03T02:56:20.402Z,92.40
2018-03-03T02:57:20.378Z,95.30
2018-03-03T02:58:20.372Z,91.80
2018-03-03T02:59:20.342Z,94.00
2018-03-03T03:00:41.338Z,96.80
2018-03-03T03:01:20.299Z,95.50
2018-03-03T03:02:20.266Z,97.20
2018-03-03T03:03:20.267Z,95.70
2018-03-03T03:04:20.232Z,98.60
2018-03-03T03:05:20.244Z,96.00
2018-03-03T03:06:20.193Z,95.10
2018-03-03T03:07:20.163Z,94.40
2018-03-03T03:08:20.145Z,92.80
2018-03-03T03:09:20.126Z,91.70
2018-03-03T03:10:20.111Z,90.00
2018-03-03T03:11:20.077Z,88.10
2018-03-03T03:12:20.049Z,90.70
2018-03-03T03:13:20.042Z,85.70
2018-03-03T03:14:20.019Z,85.50
2018-03-03T03:15:20.007Z,87.90
2018-03-03T03:16:19.970Z,84.10
2018-03-03T03:17:19.943Z,83.90
2018-03-03T03:18:19.920Z,84.20
2018-03-03T03:19:19.893Z,84.00
2018-03-03T03:20:19.892Z,80.90
2018-03-03T03:21:19.870Z,80.00
2018-03-03T03:22:19.848Z,78.70
2018-03-03T03:23:19.812Z,80.30
2018-03-03T03:24:19.807Z,79.60
2018-03-03T03:25:19.772Z,78.40
2018-03-03T03:26:19.742Z,79.20
2018-03-03T03:27:19.730Z,79.90
2018-03-03T03:28:19.692Z,77.70
2018-03-03T03:29:19.693Z,77.60
2018-03-03T03:30:19.659Z,77.50
2018-03-03T03:31:19.646Z,77.80
2018-03-03T03:32:19.624Z,77.70
2018-03-03T03:33:19.591Z,78.30
2018-03-03T03:34:19.578Z,77.20
2018-03-03T03:35:19.538Z,77.10
2018-03-03T03:36:19.527Z,78.20
2018-03-03T03:37:19.498Z,76.80
2018-03-03T03:38:19.487Z,75.10
2018-03-03T03:39:19.449Z,76.90
2018-03-03T03:40:19.433Z,76.10
2018-03-03T03:41:19.404Z,74.90
2018-03-03T03:42:19.386Z,76.00
2018-03-03T03:43:19.375Z,75.90
2018-03-03T03:44:19.342Z,73.70
2018-03-03T03:45:19.329Z,74.00
2018-03-03T03:46:19.291Z,75.50
2018-03-03T03:47:19.290Z,74.60
2018-03-03T03:48:19.269Z,75.40
2018-03-03T03:49:19.239Z,75.90
2018-03-03T03:50:19.227Z,75.20
2018-03-03T03:51:19.181Z,73.80
2018-03-03T03:52:19.166Z,74.50
2018-03-03T03:53:19.139Z,73.30
2018-03-03T03:54:19.116Z,73.80
2018-03-03T03:55:19.110Z,75.30
2018-03-03T03:56:19.084Z,73.20
2018-03-03T03:57:19.068Z,73.90
2018-03-03T03:58:19.025Z,74.00
2018-03-03T03:59:19.019Z,72.70
2018-03-03T04:00:18.987Z,74.30
2018-03-03T04:01:18.975Z,73.20
2018-03-03T04:02:18.941Z,74.60
2018-03-03T04:03:18.950Z,72.80
2018-03-03T04:04:18.896Z,71.30
2018-03-03T04:05:18.901Z,73.30
2018-03-03T04:06:18.850Z,72.90
2018-03-03T04:07:18.828Z,75.00
2018-03-03T04:08:18.810Z,75.20
2018-03-03T04:09:18.796Z,74.50
2018-03-03T04:10:18.784Z,74.00
2018-03-03T04:11:18.754Z,75.20
2018-03-03T04:12:18.714Z,75.20
2018-03-03T04:13:18.694Z,72.40
2018-03-03T04:14:18.669Z,72.60
2018-03-03T04:15:18.656Z,71.80
2018-03-03T04:16:18.652Z,73.10
2018-03-03T04:17:18.623Z,74.60
2018-03-03T04:18:18.580Z,72.30
2018-03-03T04:19:18.568Z,72.30
2018-03-03T04:20:18.573Z,72.90
2018-03-03T04:21:18.532Z,72.50
2018-03-03T04:22:18.507Z,74.00
2018-03-03T04:23:18.491Z,72.40
2018-03-03T04:24:18.462Z,75.50
2018-03-03T04:25:18.447Z,74.30
2018-03-03T04:26:18.409Z,74.10
2018-03-03T04:27:18.385Z,73.40
2018-03-03T04:28:18.362Z,74.30
2018-03-03T04:29:18.344Z,73.20
2018-03-03T04:30:18.328Z,73.50
2018-03-03T04:31:18.312Z,73.90
2018-03-03T04:32:18.278Z,73.10
2018-03-03T04:33:18.254Z,73.70
2018-03-03T04:34:18.237Z,74.10
2018-03-03T04:35:18.210Z,73.50
2018-03-03T04:36:18.185Z,73.70
2018-03-03T04:37:18.185Z,72.00
2018-03-03T04:38:18.140Z,72.00
2018-03-03T04:39:18.126Z,74.30
2018-03-03T04:40:18.096Z,75.20
2018-03-03T04:41:18.076Z,77.40
2018-03-03T04:42:18.052Z,76.30
2018-03-03T04:43:18.048Z,73.10
2018-03-03T04:44:18.010Z,73.30
2018-03-03T04:45:17.993Z,72.80
2018-03-03T04:46:17.968Z,74.40
2018-03-03T04:47:17.957Z,73.30
2018-03-03T04:48:17.919Z,75.10
2018-03-03T04:49:17.919Z,73.30
2018-03-03T04:50:17.880Z,72.80
2018-03-03T04:51:17.858Z,73.80
2018-03-03T04:52:17.856Z,73.70
2018-03-03T04:53:17.814Z,73.10
2018-03-03T04:54:17.803Z,72.00
2018-03-03T04:55:17.770Z,73.90
2018-03-03T04:56:17.750Z,72.40
2018-03-03T04:57:17.730Z,72.80
2018-03-03T04:58:17.715Z,71.70
2018-03-03T04:59:17.705Z,75.80
2018-03-03T05:00:17.669Z,72.80
2018-03-03T05:01:17.638Z,72.10
2018-03-03T05:02:17.615Z,72.40
2018-03-03T05:03:17.612Z,69.90
2018-03-03T05:04:17.571Z,73.50
2018-03-03T05:05:17.568Z,72.60
2018-03-03T05:06:17.529Z,73.60
2018-03-03T05:07:17.501Z,72.40
2018-03-03T05:08:17.477Z,74.80
2018-03-03T05:09:17.460Z,75.30
2018-03-03T05:10:17.433Z,75.50
2018-03-03T05:11:17.436Z,73.40
2018-03-03T05:12:17.390Z,72.90
2018-03-03T05:13:17.366Z,71.90
2018-03-03T05:14:17.357Z,73.60
2018-03-03T05:15:17.327Z,72.90
2018-03-03T05:16:17.326Z,70.70
2018-03-03T05:17:17.293Z,71.40
2018-03-03T05:18:17.269Z,71.40
2018-03-03T05:19:17.243Z,69.60
2018-03-03T05:20:17.217Z,70.30
2018-03-03T05:21:17.231Z,68.10
2018-03-03T05:22:17.176Z,69.40
2018-03-03T05:23:17.154Z,69.90
2018-03-03T05:24:17.131Z,68.90
2018-03-03T05:25:17.104Z,70.20
2018-03-03T05:26:17.080Z,70.10
2018-03-03T05:27:17.086Z,72.00
2018-03-03T05:28:17.035Z,71.00
2018-03-03T05:29:17.016Z,70.90
2018-03-03T05:30:17.018Z,70.90
2018-03-03T05:31:16.973Z,70.40
2018-03-03T05:32:16.954Z,70.40
2018-03-03T05:33:16.934Z,71.70
2018-03-03T05:34:16.930Z,73.00
2018-03-03T05:35:16.887Z,70.40
2018-03-03T05:36:16.867Z,73.30
2018-03-03T05:37:16.852Z,73.00
2018-03-03T05:38:16.836Z,71.00
2018-03-03T05:39:16.803Z,72.10
2018-03-03T05:40:16.782Z,73.90
2018-03-03T05:41:16.772Z,73.00
2018-03-03T05:42:16.733Z,73.70
2018-03-03T05:43:16.715Z,73.10
2018-03-03T05:44:16.715Z,69.80
2018-03-03T05:45:16.664Z,72.30
2018-03-03T05:46:16.664Z,70.90
2018-03-03T05:47:17.261Z,69.50
2018-03-03T05:48:16.632Z,70.40
2018-03-03T05:49:16.621Z,71.90
2018-03-03T05:50:16.564Z,70.50
2018-03-03T05:51:16.572Z,70.00
2018-03-03T05:52:18.012Z,72.00
2018-03-03T05:53:16.518Z,71.80
2018-03-03T05:54:16.519Z,70.50
2018-03-03T05:55:16.505Z,68.70
2018-03-03T05:56:16.549Z,68.60
2018-03-03T05:57:16.912Z,70.20
2018-03-03T05:58:16.392Z,70.40
2018-03-03T05:59:16.385Z,71.30
2018-03-03T06:00:16.343Z,69.70
2018-03-03T06:01:16.364Z,69.10
2018-03-03T06:02:16.334Z,69.40
2018-03-03T06:03:16.299Z,70.30
2018-03-03T06:04:16.298Z,70.70
2018-03-03T06:05:16.254Z,69.10
2018-03-03T06:06:16.250Z,71.70
2018-03-03T06:07:16.200Z,72.80
2018-03-03T06:08:16.167Z,70.60
2018-03-03T06:09:16.188Z,72.60
2018-03-03T06:10:16.133Z,72.30
2018-03-03T06:11:16.225Z,72.90
2018-03-03T06:12:16.360Z,70.50
2018-03-03T06:13:16.111Z,70.80
2018-03-03T06:14:16.081Z,70.50
2018-03-03T06:15:16.064Z,72.00
2018-03-03T06:16:16.187Z,71.20
2018-03-03T06:17:16.018Z,72.50
2018-03-03T06:18:16.028Z,72.00
2018-03-03T06:19:15.988Z,73.10
2018-03-03T06:20:15.913Z,71.50
2018-03-03T06:21:15.897Z,73.50
2018-03-03T06:22:15.999Z,72.70
2018-03-03T06:23:15.911Z,72.20
2018-03-03T06:24:15.834Z,73.90
2018-03-03T06:25:15.862Z,71.10
2018-03-03T06:26:15.798Z,73.10
2018-03-03T06:27:16.742Z,73.70
2018-03-03T06:28:36.790Z,74.10
2018-03-03T06:29:15.729Z,76.30
2018-03-03T06:30:15.859Z,75.10
2018-03-03T06:31:15.686Z,74.20
2018-03-03T06:32:15.862Z,74.60
2018-03-03T06:33:15.658Z,73.20
2018-03-03T06:34:15.642Z,74.40
2018-03-03T06:35:15.659Z,75.50
2018-03-03T06:36:15.904Z,74.90
2018-03-03T06:37:15.561Z,72.00
2018-03-03T06:38:15.550Z,74.90
2018-03-03T06:39:15.531Z,73.50
2018-03-03T06:40:15.487Z,73.80
2018-03-03T06:41:15.499Z,76.60
2018-03-03T06:42:15.433Z,76.80
2018-03-03T06:43:15.408Z,77.30
2018-03-03T06:44:15.413Z,73.50
2018-03-03T06:45:15.409Z,74.00
2018-03-03T06:46:15.386Z,73.50
2018-03-03T06:47:15.359Z,74.50
2018-03-03T06:48:15.322Z,73.50
2018-03-03T06:49:15.304Z,74.30
2018-03-03T06:50:15.299Z,73.70
2018-03-03T06:51:15.257Z,75.50
2018-03-03T06:52:15.236Z,75.00
2018-03-03T06:53:15.210Z,75.50
2018-03-03T06:54:15.211Z,74.50
2018-03-03T06:55:15.150Z,74.20
2018-03-03T06:56:15.160Z,74.60
2018-03-03T06:57:15.162Z,74.40
2018-03-03T06:58:15.111Z,75.10
2018-03-03T06:59:15.125Z,73.70
2018-03-03T07:00:15.110Z,75.50
2018-03-03T07:01:15.048Z,73.70
2018-03-03T07:02:15.001Z,72.50
2018-03-03T07:03:15.040Z,73.90
2018-03-03T07:04:14.996Z,74.00
2018-03-03T07:05:14.957Z,73.50
2018-03-03T07:06:14.926Z,74.30
2018-03-03T07:07:14.944Z,73.10
2018-03-03T07:08:14.941Z,78.60
2018-03-03T07:09:14.921Z,79.20
2018-03-03T07:10:14.827Z,75.90
2018-03-03T07:11:14.854Z,75.80
2018-03-03T07:12:14.867Z,77.60
2018-03-03T07:13:14.839Z,76.30
2018-03-03T07:14:14.812Z,76.90
2018-03-03T07:15:14.752Z,78.50
2018-03-03T07:16:14.703Z,77.50
2018-03-03T07:17:14.730Z,77.20
2018-03-03T07:18:15.315Z,76.60
2018-03-03T07:19:14.644Z,74.40
2018-03-03T07:20:14.640Z,75.50
2018-03-03T07:21:14.636Z,76.80
2018-03-03T07:22:14.577Z,75.90
2018-03-03T07:23:14.613Z,75.70
2018-03-03T07:24:14.566Z,79.00
2018-03-03T07:25:14.526Z,77.90
2018-03-03T07:26:14.559Z,76.80
2018-03-03T07:27:14.493Z,76.40
2018-03-03T07:28:14.498Z,76.80
2018-03-03T07:29:14.509Z,75.60
2018-03-03T07:30:14.462Z,77.00
2018-03-03T07:31:14.414Z,74.10
2018-03-03T07:32:14.363Z,76.20
2018-03-03T07:33:14.354Z,75.90
2018-03-03T07:34:14.351Z,75.60
2018-03-03T07:35:14.439Z,76.30
2018-03-03T07:36:14.316Z,76.30
2018-03-03T07:37:14.292Z,73.80
2018-03-03T07:38:14.260Z,73.80
2018-03-03T07:39:14.189Z,76.40
2018-03-03T07:40:14.166Z,74.40
2018-03-03T07:41:14.174Z,74.40
2018-03-03T07:42:14.120Z,73.60
2018-03-03T07:43:14.098Z,75.10
2018-03-03T07:44:14.085Z,73.10
2018-03-03T07:45:14.052Z,74.10
2018-03-03T07:46:14.041Z,72.90
2018-03-03T07:47:14.030Z,71.50
2018-03-03T07:48:13.988Z,72.20
2018-03-03T07:49:13.971Z,72.30
2018-03-03T07:50:13.946Z,73.10
2018-03-03T07:51:13.926Z,71.30
2018-03-03T07:52:13.919Z,73.40
2018-03-03T07:53:13.883Z,73.40
2018-03-03T07:54:13.856Z,70.40
2018-03-03T07:55:13.839Z,73.10
2018-03-03T07:56:13.812Z,72.70
2018-03-03T07:57:13.822Z,71.50
2018-03-03T07:58:13.792Z,73.40
2018-03-03T07:59:13.756Z,71.00
2018-03-03T08:00:13.735Z,69.30
2018-03-03T08:01:13.713Z,69.80
2018-03-03T08:02:34.700Z,67.40
2018-03-03T08:03:13.673Z,67.10
2018-03-03T08:04:13.642Z,67.10
2018-03-03T08:05:13.653Z,64.30
2018-03-03T08:06:13.607Z,64.40
2018-03-03T08:07:13.583Z,65.70
2018-03-03T08:08:13.564Z,64.00
2018-03-03T08:09:13.540Z,63.60
2018-03-03T08:10:13.538Z,63.00
2018-03-03T08:11:13.500Z,63.60
2018-03-03T08:12:13.521Z,64.60
2018-03-03T08:13:13.463Z,63.90
2018-03-03T08:14:13.436Z,61.50
2018-03-03T08:15:13.461Z,63.80
2018-03-03T08:16:13.406Z,63.90
2018-03-03T08:17:13.372Z,61.00
2018-03-03T08:18:13.372Z,61.70
2018-03-03T08:19:13.336Z,62.50
2018-03-03T08:20:13.369Z,62.00
2018-03-03T08:21:13.291Z,62.80
2018-03-03T08:22:13.268Z,60.90
2018-03-03T08:23:13.252Z,61.00
2018-03-03T08:24:13.245Z,61.60
2018-03-03T08:25:13.211Z,61.70
2018-03-03T08:26:13.224Z,61.40
2018-03-03T08:27:13.168Z,61.70
2018-03-03T08:28:13.146Z,61.50
2018-03-03T08:29:13.125Z,62.30
2018-03-03T08:30:13.116Z,63.00
2018-03-03T08:31:13.087Z,62.70
2018-03-03T08:32:13.075Z,62.80
2018-03-03T08:33:13.042Z,61.00
2018-03-03T08:34:13.026Z,62.30
2018-03-03T08:35:13.003Z,64.00
2018-03-03T08:36:12.988Z,62.40
2018-03-03T08:37:12.989Z,61.50
2018-03-03T08:38:12.945Z,63.00
2018-03-03T08:39:12.924Z,63.70
2018-03-03T08:40:12.908Z,63.60
2018-03-03T08:41:12.898Z,63.90
2018-03-03T08:42:12.853Z,63.50
2018-03-03T08:43:12.858Z,63.50
2018-03-03T08:44:12.845Z,63.40
2018-03-03T08:45:12.801Z,62.10
2018-03-03T08:46:12.784Z,63.30
2018-03-03T08:47:12.769Z,63.20
2018-03-03T08:48:12.732Z,62.80
2018-03-03T08:49:12.731Z,64.10
2018-03-03T08:50:12.688Z,63.50
2018-03-03T08:51:12.672Z,62.20
2018-03-03T08:52:12.649Z,62.10
2018-03-03T08:53:12.633Z,62.10
2018-03-03T08:54:12.619Z,63.30
2018-03-03T08:55:12.611Z,62.20
2018-03-03T08:56:12.576Z,62.00
2018-03-03T08:57:12.553Z,63.20
2018-03-03T08:58:12.534Z,61.90
2018-03-03T08:59:12.524Z,63.00
2018-03-03T09:00:33.498Z,62.40
2018-03-03T09:01:12.470Z,62.60
2018-03-03T09:02:12.449Z,62.90
2018-03-03T09:03:12.435Z,62.10
2018-03-03T09:04:12.418Z,62.40
2018-03-03T09:05:12.421Z,62.30
2018-03-03T09:06:12.369Z,63.30
2018-03-03T09:07:12.349Z,60.80
2018-03-03T09:08:12.334Z,61.60
2018-03-03T09:09:12.310Z,62.30
2018-03-03T09:10:12.317Z,62.10
2018-03-03T09:11:12.286Z,62.40
2018-03-03T09:12:12.265Z,62.80
2018-03-03T09:13:12.225Z,62.20
2018-03-03T09:14:12.209Z,63.20
2018-03-03T09:15:12.191Z,61.90
2018-03-03T09:16:12.167Z,60.50
2018-03-03T09:17:12.146Z,61.20
2018-03-03T09:18:12.150Z,63.30
2018-03-03T09:19:12.109Z,61.50
2018-03-03T09:20:12.085Z,61.70
2018-03-03T09:21:12.098Z,61.60
2018-03-03T09:22:12.049Z,61.10
2018-03-03T09:23:12.042Z,61.60
2018-03-03T09:24:12.014Z,61.30
2018-03-03T09:25:11.990Z,60.80
2018-03-03T09:27:50.960Z,63.10
2018-03-03T09:28:50.907Z,60.70
2018-03-03T09:29:50.889Z,61.00
2018-03-03T09:30:50.867Z,60.40
2018-03-03T09:31:50.841Z,61.10
2018-03-03T09:32:50.822Z,61.10
2018-03-03T09:33:50.845Z,61.80
2018-03-03T09:34:50.781Z,61.00
2018-03-03T09:35:50.764Z,61.00
2018-03-03T09:36:50.748Z,59.70
2018-03-03T09:37:50.729Z,60.90
2018-03-03T09:38:50.725Z,61.00
2018-03-03T09:39:50.695Z,60.90
2018-03-03T09:40:50.671Z,60.50
2018-03-03T09:41:50.661Z,60.00
2018-03-03T09:42:50.636Z,58.80
2018-03-03T09:43:50.627Z,59.50
2018-03-03T09:44:50.616Z,59.60
2018-03-03T09:45:50.575Z,58.70
2018-03-03T09:46:50.550Z,59.30
2018-03-03T09:47:50.536Z,59.00
2018-03-03T09:48:50.517Z,61.10
2018-03-03T09:49:50.513Z,60.40
2018-03-03T09:50:50.473Z,60.00
2018-03-03T09:51:50.502Z,60.10
2018-03-03T09:52:50.448Z,59.60
2018-03-03T09:53:50.418Z,61.30
2018-03-03T09:54:50.420Z,62.00
2018-03-03T09:55:50.445Z,61.40
2018-03-03T09:56:50.369Z,60.70
2018-03-03T09:57:50.345Z,61.80
2018-03-03T09:58:50.373Z,61.80
2018-03-03T09:59:50.313Z,61.30
2018-03-03T10:00:50.311Z,61.90
2018-03-03T10:01:52.333Z,62.50
2018-03-03T10:02:50.253Z,61.80
2018-03-03T10:03:50.241Z,61.80
2018-03-03T10:04:50.214Z,62.10
2018-03-03T10:06:11.217Z,62.60
2018-03-03T10:06:50.181Z,62.80
2018-03-03T10:07:50.172Z,62.60
2018-03-03T10:08:50.139Z,63.50
2018-03-03T10:09:50.133Z,62.10
2018-03-03T10:10:50.111Z,62.70
2018-03-03T10:11:50.106Z,62.90
2018-03-03T10:12:50.073Z,62.00
2018-03-03T10:13:50.074Z,61.70
2018-03-03T10:14:50.036Z,61.90
2018-03-03T10:15:50.015Z,62.50
2018-03-03T10:16:49.990Z,62.00
2018-03-03T10:17:49.993Z,61.70
2018-03-03T10:18:50.001Z,62.10
2018-03-03T10:19:49.939Z,62.80
2018-03-03T10:20:49.964Z,62.40
2018-03-03T10:21:49.905Z,62.20
2018-03-03T10:22:49.991Z,62.40
2018-03-03T10:23:49.871Z,62.50
2018-03-03T10:24:49.857Z,62.90
2018-03-03T10:25:49.836Z,64.10
2018-03-03T10:26:49.811Z,62.00
2018-03-03T10:27:49.815Z,62.90
2018-03-03T10:28:49.778Z,64.20
2018-03-03T10:29:49.777Z,62.40
2018-03-03T10:30:49.763Z,62.90
2018-03-03T10:31:49.726Z,63.00
2018-03-03T10:32:49.706Z,61.70
2018-03-03T10:33:49.742Z,61.90
2018-03-03T10:34:49.688Z,59.90
2018-03-03T10:35:49.688Z,61.00
2018-03-03T10:36:49.650Z,60.60
2018-03-03T10:37:49.666Z,62.30
2018-03-03T10:38:49.656Z,61.70
2018-03-03T10:39:49.607Z,61.30
2018-03-03T10:40:49.564Z,61.40
2018-03-03T10:41:49.582Z,60.90
2018-03-03T10:42:49.529Z,61.20
2018-03-03T10:43:49.528Z,64.30
2018-03-03T10:44:49.529Z,66.80
2018-03-03T10:45:49.502Z,66.60
2018-03-03T10:46:49.494Z,66.10
2018-03-03T10:47:49.452Z,68.70
2018-03-03T10:48:49.459Z,66.80
2018-03-03T10:49:49.417Z,68.00
2018-03-03T10:50:49.404Z,64.70
2018-03-03T10:51:49.378Z,64.90
2018-03-03T10:52:49.359Z,64.60
2018-03-03T10:53:49.368Z,64.20
2018-03-03T10:54:49.349Z,65.60
2018-03-03T10:55:49.310Z,64.60
2018-03-03T10:56:49.301Z,64.80
2018-03-03T10:57:49.279Z,63.00
2018-03-03T10:58:49.259Z,64.50
2018-03-03T10:59:49.265Z,64.20
2018-03-03T11:00:49.241Z,63.60
2018-03-03T11:01:49.206Z,63.70
2018-03-03T11:02:49.189Z,60.80
2018-03-03T11:03:49.174Z,61.50
2018-03-03T11:04:49.187Z,61.60
2018-03-03T11:05:49.138Z,61.10
2018-03-03T11:06:49.132Z,60.60
2018-03-03T11:07:49.123Z,60.90
2018-03-03T11:08:49.084Z,60.00
2018-03-03T11:09:49.079Z,60.40
2018-03-03T11:10:49.069Z,61.20
2018-03-03T11:11:49.053Z,60.90
2018-03-03T11:12:49.009Z,62.30
2018-03-03T11:13:48.998Z,60.00
2018-03-03T11:14:48.979Z,59.10
2018-03-03T11:15:49.019Z,59.20
2018-03-03T11:16:48.941Z,57.20
2018-03-03T11:17:48.933Z,56.30
2018-03-03T11:18:48.906Z,57.20
2018-03-03T11:19:48.886Z,58.70
2018-03-03T11:20:48.873Z,56.40
2018-03-03T11:21:48.869Z,56.50
2018-03-03T11:22:48.834Z,57.50
2018-03-03T11:23:48.816Z,57.80
2018-03-03T11:24:48.800Z,58.00
2018-03-03T11:25:48.781Z,56.90
2018-03-03T11:26:48.783Z,57.20
2018-03-03T11:27:48.767Z,57.30
2018-03-03T11:28:48.730Z,56.60
2018-03-03T11:29:48.715Z,57.00
2018-03-03T11:30:48.717Z,56.70
2018-03-03T11:31:48.678Z,55.50
2018-03-03T11:32:48.665Z,54.90
2018-03-03T11:33:48.663Z,55.00
2018-03-03T11:34:48.626Z,53.70
2018-03-03T11:35:48.605Z,53.40
2018-03-03T11:36:48.597Z,54.80
2018-03-03T11:37:48.574Z,53.70
2018-03-03T11:38:48.579Z,53.50
2018-03-03T11:39:48.542Z,53.50
2018-03-03T11:40:48.540Z,54.40
2018-03-03T11:41:48.528Z,54.00
2018-03-03T11:42:48.498Z,53.60
2018-03-03T11:43:48.503Z,53.90
2018-03-03T11:44:48.471Z,52.60
2018-03-03T11:45:48.479Z,54.20
2018-03-03T11:46:48.444Z,53.00
2018-03-03T11:47:48.430Z,53.80
2018-03-03T11:49:09.420Z,53.40
2018-03-03T11:49:48.401Z,52.00
2018-03-03T11:50:48.405Z,52.40
2018-03-03T11:51:48.378Z,51.00
2018-03-03T11:52:48.348Z,52.60
2018-03-03T11:53:48.349Z,52.80
2018-03-03T11:54:48.324Z,53.60
2018-03-03T11:55:48.308Z,54.40
2018-03-03T11:56:48.316Z,55.30
2018-03-03T11:57:48.283Z,53.90
2018-03-03T11:58:48.267Z,54.10
2018-03-03T11:59:48.265Z,53.20
2018-03-03T12:00:48.238Z,53.00
2018-03-03T12:01:48.216Z,53.20
2018-03-03T12:02:48.205Z,53.40
2018-03-03T12:03:48.211Z,53.50
2018-03-03T12:04:48.175Z,53.20
2018-03-03T12:05:48.171Z,52.50
2018-03-03T12:06:48.155Z,52.50
2018-03-03T12:07:48.131Z,53.00
2018-03-03T12:08:48.119Z,52.70
2018-03-03T12:09:48.131Z,51.00
2018-03-03T12:10:48.085Z,50.80
2018-03-03T12:11:48.076Z,52.10
2018-03-03T12:12:48.061Z,52.40
2018-03-03T12:13:48.048Z,51.50
2018-03-03T12:14:48.056Z,52.40
2018-03-03T12:15:48.023Z,52.40
2018-03-03T12:16:48.025Z,53.10
2018-03-03T12:17:47.991Z,53.50
2018-03-03T12:18:47.978Z,53.00
2018-03-03T12:19:47.963Z,53.60
2018-03-03T12:20:47.970Z,54.20
2018-03-03T12:21:47.981Z,54.80
2018-03-03T12:22:47.933Z,54.00
2018-03-03T12:23:47.917Z,53.60
2018-03-03T12:24:47.903Z,54.10
2018-03-03T12:25:47.888Z,53.80
2018-03-03T12:26:47.876Z,54.70
2018-03-03T12:27:47.877Z,51.80
2018-03-03T12:28:47.842Z,51.40
2018-03-03T12:29:47.835Z,53.00
2018-03-03T12:30:47.819Z,51.70
2018-03-03T12:31:47.805Z,52.50
2018-03-03T12:32:47.802Z,53.40
2018-03-03T12:33:47.773Z,54.40
2018-03-03T12:34:47.786Z,53.10
2018-03-03T12:35:47.751Z,52.00
2018-03-03T12:36:47.759Z,52.90
2018-03-03T12:37:47.751Z,50.90
2018-03-03T12:38:47.712Z,51.30
2018-03-03T12:39:47.707Z,52.20
2018-03-03T12:40:47.689Z,51.50
2018-03-03T12:41:47.671Z,50.80
2018-03-03T12:42:47.671Z,49.30
2018-03-03T12:43:47.659Z,49.70
2018-03-03T12:44:47.643Z,49.80
2018-03-03T12:45:47.656Z,49.30
2018-03-03T12:46:47.606Z,48.90
2018-03-03T12:47:47.611Z,50.10
2018-03-03T12:48:47.595Z,48.80
2018-03-03T12:49:47.562Z,50.30
2018-03-03T12:50:47.563Z,49.20
2018-03-03T12:51:47.542Z,50.20
2018-03-03T12:52:47.522Z,50.80
2018-03-03T12:53:47.515Z,49.00